sensor_id;sensor_type;location;lat;lon;timestamp;temperature;humidity
26053;DHT22;13826;51.186;4.450;2023-05-18T00:01:31;10.10;1.00
26053;DHT22;13826;51.186;4.450;2023-05-18T00:03:56;10.10;1.00
26053;DHT22;13826;51.186;4.450;2023-05-18T00:06:22;10.00;1.00
26053;DHT22;13826;51.186;4.450;2023-05-18T00:08:49;9.90;1.00
26053;DHT22;13826;51.186;4.450;2023-05-18T00:11:15;10.00;1.00
26053;DHT22;13826;51.186;4.450;2023-05-18T00:13:41;10.00;1.00
26053;DHT22;13826;51.186;4.450;2023-05-18T00:16:06;9.90;1.00
26053;DHT22;13826;51.186;4.450;2023-05-18T00:18:32;9.90;1.00
26053;DHT22;13826;51.186;4.450;2023-05-18T00:20:58;9.90;1.00
26053;DHT22;13826;51.186;4.450;2023-05-18T00:23:27;9.80;1.00
26053;DHT22;13826;51.186;4.450;2023-05-18T00:26:00;9.80;1.00
26053;DHT22;13826;51.186;4.450;2023-05-18T00:28:26;9.80;1.00
26053;DHT22;13826;51.186;4.450;2023-05-18T00:30:52;9.80;1.00
26053;DHT22;13826;51.186;4.450;2023-05-18T00:33:18;9.70;1.00
26053;DHT22;13826;51.186;4.450;2023-05-18T00:35:43;9.80;1.00
26053;DHT22;13826;51.186;4.450;2023-05-18T00:38:09;9.70;1.00
26053;DHT22;13826;51.186;4.450;2023-05-18T00:40:36;9.70;1.00
26053;DHT22;13826;51.186;4.450;2023-05-18T00:43:02;9.60;1.00
26053;DHT22;13826;51.186;4.450;2023-05-18T00:45:28;9.50;1.00
26053;DHT22;13826;51.186;4.450;2023-05-18T00:47:53;9.50;1.00
26053;DHT22;13826;51.186;4.450;2023-05-18T00:50:19;9.50;1.00
26053;DHT22;13826;51.186;4.450;2023-05-18T00:52:44;9.60;1.00
26053;DHT22;13826;51.186;4.450;2023-05-18T00:55:11;9.60;1.00
26053;DHT22;13826;51.186;4.450;2023-05-18T00:57:37;9.60;1.00
26053;DHT22;13826;51.186;4.450;2023-05-18T01:00:03;9.50;1.00
26053;DHT22;13826;51.186;4.450;2023-05-18T01:02:31;9.30;1.00
26053;DHT22;13826;51.186;4.450;2023-05-18T01:04:57;9.40;1.00
26053;DHT22;13826;51.186;4.450;2023-05-18T01:07:24;9.40;1.00
26053;DHT22;13826;51.186;4.450;2023-05-18T01:09:51;9.40;1.00
26053;DHT22;13826;51.186;4.450;2023-05-18T01:12:20;9.40;1.00
26053;DHT22;13826;51.186;4.450;2023-05-18T01:14:53;9.30;1.00
26053;DHT22;13826;51.186;4.450;2023-05-18T01:20:10;9.30;1.00
26053;DHT22;13826;51.186;4.450;2023-05-18T01:22:49;9.40;1.00
26053;DHT22;13826;51.186;4.450;2023-05-18T01:27:56;9.20;1.00
26053;DHT22;13826;51.186;4.450;2023-05-18T01:30:24;9.10;1.00
26053;DHT22;13826;51.186;4.450;2023-05-18T01:32:50;9.10;1.00
26053;DHT22;13826;51.186;4.450;2023-05-18T01:35:16;9.00;1.00
26053;DHT22;13826;51.186;4.450;2023-05-18T01:37:41;9.10;1.00
26053;DHT22;13826;51.186;4.450;2023-05-18T01:40:07;9.00;1.00
26053;DHT22;13826;51.186;4.450;2023-05-18T01:42:33;9.00;1.00
26053;DHT22;13826;51.186;4.450;2023-05-18T01:45:02;9.10;1.00
26053;DHT22;13826;51.186;4.450;2023-05-18T01:47:31;9.00;1.00
26053;DHT22;13826;51.186;4.450;2023-05-18T01:52:28;9.00;1.00
26053;DHT22;13826;51.186;4.450;2023-05-18T01:54:56;8.90;1.00
26053;DHT22;13826;51.186;4.450;2023-05-18T01:57:24;8.90;1.00
26053;DHT22;13826;51.186;4.450;2023-05-18T01:59:51;9.00;1.00
26053;DHT22;13826;51.186;4.450;2023-05-18T02:02:18;9.00;1.00
26053;DHT22;13826;51.186;4.450;2023-05-18T02:04:44;9.00;1.00
26053;DHT22;13826;51.186;4.450;2023-05-18T02:07:09;9.00;1.00
26053;DHT22;13826;51.186;4.450;2023-05-18T02:09:35;9.10;1.00
26053;DHT22;13826;51.186;4.450;2023-05-18T02:12:01;8.90;1.00
26053;DHT22;13826;51.186;4.450;2023-05-18T02:14:26;8.90;1.00
26053;DHT22;13826;51.186;4.450;2023-05-18T02:16:52;8.80;1.00
26053;DHT22;13826;51.186;4.450;2023-05-18T02:19:18;8.80;1.00
26053;DHT22;13826;51.186;4.450;2023-05-18T02:21:44;8.90;1.00
26053;DHT22;13826;51.186;4.450;2023-05-18T02:24:10;8.80;1.00
26053;DHT22;13826;51.186;4.450;2023-05-18T02:26:36;8.80;1.00
26053;DHT22;13826;51.186;4.450;2023-05-18T02:29:02;8.80;1.00
26053;DHT22;13826;51.186;4.450;2023-05-18T02:31:30;8.80;1.00
26053;DHT22;13826;51.186;4.450;2023-05-18T02:33:56;8.70;1.00
26053;DHT22;13826;51.186;4.450;2023-05-18T02:36:22;8.60;1.00
26053;DHT22;13826;51.186;4.450;2023-05-18T02:38:47;8.70;1.00
26053;DHT22;13826;51.186;4.450;2023-05-18T02:41:13;8.60;1.00
26053;DHT22;13826;51.186;4.450;2023-05-18T02:43:39;8.60;1.00
26053;DHT22;13826;51.186;4.450;2023-05-18T02:46:04;8.50;1.00
26053;DHT22;13826;51.186;4.450;2023-05-18T02:48:30;8.60;1.00
26053;DHT22;13826;51.186;4.450;2023-05-18T02:50:56;8.60;1.00
26053;DHT22;13826;51.186;4.450;2023-05-18T02:53:23;8.60;1.00
26053;DHT22;13826;51.186;4.450;2023-05-18T02:55:52;8.50;1.00
26053;DHT22;13826;51.186;4.450;2023-05-18T02:58:18;8.40;1.00
26053;DHT22;13826;51.186;4.450;2023-05-18T03:00:45;8.30;1.00
26053;DHT22;13826;51.186;4.450;2023-05-18T03:03:12;8.50;1.00
26053;DHT22;13826;51.186;4.450;2023-05-18T03:05:39;8.50;1.00
26053;DHT22;13826;51.186;4.450;2023-05-18T03:08:05;8.50;1.00
26053;DHT22;13826;51.186;4.450;2023-05-18T03:10:31;8.50;1.00
26053;DHT22;13826;51.186;4.450;2023-05-18T03:12:56;8.60;1.00
26053;DHT22;13826;51.186;4.450;2023-05-18T03:15:22;8.60;1.00
26053;DHT22;13826;51.186;4.450;2023-05-18T03:17:47;8.50;1.00
26053;DHT22;13826;51.186;4.450;2023-05-18T03:20:13;8.60;1.00
26053;DHT22;13826;51.186;4.450;2023-05-18T03:22:39;8.60;1.00
26053;DHT22;13826;51.186;4.450;2023-05-18T03:25:05;8.50;1.00
26053;DHT22;13826;51.186;4.450;2023-05-18T03:27:31;8.50;1.00
26053;DHT22;13826;51.186;4.450;2023-05-18T03:29:57;8.50;1.00
26053;DHT22;13826;51.186;4.450;2023-05-18T03:32:22;8.40;1.00
26053;DHT22;13826;51.186;4.450;2023-05-18T03:34:53;8.30;1.00
26053;DHT22;13826;51.186;4.450;2023-05-18T03:37:18;8.20;1.00
26053;DHT22;13826;51.186;4.450;2023-05-18T03:39:44;8.30;1.00
26053;DHT22;13826;51.186;4.450;2023-05-18T03:42:09;8.20;1.00
26053;DHT22;13826;51.186;4.450;2023-05-18T03:44:35;8.10;1.00
26053;DHT22;13826;51.186;4.450;2023-05-18T03:47:00;8.10;1.00
26053;DHT22;13826;51.186;4.450;2023-05-18T03:49:26;8.10;1.20
26053;DHT22;13826;51.186;4.450;2023-05-18T03:51:54;8.10;1.30
26053;DHT22;13826;51.186;4.450;2023-05-18T03:54:20;8.20;2.80
26053;DHT22;13826;51.186;4.450;2023-05-18T03:56:46;8.10;1.00
26053;DHT22;13826;51.186;4.450;2023-05-18T03:59:13;8.20;1.00
26053;DHT22;13826;51.186;4.450;2023-05-18T04:01:38;8.20;1.00
26053;DHT22;13826;51.186;4.450;2023-05-18T04:04:06;8.30;1.00
26053;DHT22;13826;51.186;4.450;2023-05-18T04:06:32;8.40;1.00
26053;DHT22;13826;51.186;4.450;2023-05-18T04:09:00;8.20;1.00
26053;DHT22;13826;51.186;4.450;2023-05-18T04:11:29;8.30;1.00
26053;DHT22;13826;51.186;4.450;2023-05-18T04:13:54;8.30;1.00
26053;DHT22;13826;51.186;4.450;2023-05-18T04:16:22;8.20;1.00
26053;DHT22;13826;51.186;4.450;2023-05-18T04:18:48;8.20;1.00
26053;DHT22;13826;51.186;4.450;2023-05-18T04:21:13;8.20;1.00
26053;DHT22;13826;51.186;4.450;2023-05-18T04:23:40;8.30;1.00
26053;DHT22;13826;51.186;4.450;2023-05-18T04:26:06;8.40;1.00
26053;DHT22;13826;51.186;4.450;2023-05-18T04:28:32;8.30;1.00
26053;DHT22;13826;51.186;4.450;2023-05-18T04:30:57;8.40;1.00
26053;DHT22;13826;51.186;4.450;2023-05-18T04:33:24;8.40;1.00
26053;DHT22;13826;51.186;4.450;2023-05-18T04:35:52;8.50;1.00
26053;DHT22;13826;51.186;4.450;2023-05-18T04:38:23;8.60;1.00
26053;DHT22;13826;51.186;4.450;2023-05-18T04:40:49;8.80;1.00
26053;DHT22;13826;51.186;4.450;2023-05-18T04:43:18;8.70;1.00
26053;DHT22;13826;51.186;4.450;2023-05-18T04:45:45;8.60;1.00
26053;DHT22;13826;51.186;4.450;2023-05-18T04:48:11;8.50;1.00
26053;DHT22;13826;51.186;4.450;2023-05-18T04:50:37;8.60;1.00
26053;DHT22;13826;51.186;4.450;2023-05-18T04:53:02;9.00;1.00
26053;DHT22;13826;51.186;4.450;2023-05-18T04:55:30;9.00;1.00
26053;DHT22;13826;51.186;4.450;2023-05-18T04:57:57;9.40;1.00
26053;DHT22;13826;51.186;4.450;2023-05-18T05:00:25;9.80;1.00
26053;DHT22;13826;51.186;4.450;2023-05-18T05:02:50;10.50;1.00
26053;DHT22;13826;51.186;4.450;2023-05-18T05:05:16;11.20;99.90
26053;DHT22;13826;51.186;4.450;2023-05-18T05:07:43;11.30;99.90
26053;DHT22;13826;51.186;4.450;2023-05-18T05:10:08;11.50;99.90
26053;DHT22;13826;51.186;4.450;2023-05-18T05:12:35;11.20;1.00
26053;DHT22;13826;51.186;4.450;2023-05-18T05:15:00;11.50;32.80
26053;DHT22;13826;51.186;4.450;2023-05-18T05:17:26;11.80;99.90
26053;DHT22;13826;51.186;4.450;2023-05-18T05:19:52;12.20;99.90
26053;DHT22;13826;51.186;4.450;2023-05-18T05:22:17;12.30;99.90
26053;DHT22;13826;51.186;4.450;2023-05-18T05:24:44;12.60;99.90
26053;DHT22;13826;51.186;4.450;2023-05-18T05:27:09;12.60;25.80
26053;DHT22;13826;51.186;4.450;2023-05-18T05:29:35;12.10;1.00
26053;DHT22;13826;51.186;4.450;2023-05-18T05:32:00;12.50;1.00
26053;DHT22;13826;51.186;4.450;2023-05-18T05:34:26;12.20;99.90
26053;DHT22;13826;51.186;4.450;2023-05-18T05:36:52;12.40;99.90
26053;DHT22;13826;51.186;4.450;2023-05-18T05:39:17;12.00;99.90
26053;DHT22;13826;51.186;4.450;2023-05-18T05:44:18;11.70;99.90
26053;DHT22;13826;51.186;4.450;2023-05-18T05:46:44;11.60;99.90
26053;DHT22;13826;51.186;4.450;2023-05-18T05:49:10;11.70;1.00
26053;DHT22;13826;51.186;4.450;2023-05-18T05:51:35;11.60;99.90
26053;DHT22;13826;51.186;4.450;2023-05-18T05:54:01;11.40;99.90
26053;DHT22;13826;51.186;4.450;2023-05-18T05:56:27;11.90;99.90
26053;DHT22;13826;51.186;4.450;2023-05-18T05:58:52;11.80;1.00
26053;DHT22;13826;51.186;4.450;2023-05-18T06:01:18;11.70;99.90
26053;DHT22;13826;51.186;4.450;2023-05-18T06:03:44;12.20;99.90
26053;DHT22;13826;51.186;4.450;2023-05-18T06:06:09;12.20;99.90
26053;DHT22;13826;51.186;4.450;2023-05-18T06:08:35;12.50;1.00
26053;DHT22;13826;51.186;4.450;2023-05-18T06:11:01;13.30;99.90
26053;DHT22;13826;51.186;4.450;2023-05-18T06:13:26;13.50;1.00
26053;DHT22;13826;51.186;4.450;2023-05-18T06:15:52;14.40;1.00
26053;DHT22;13826;51.186;4.450;2023-05-18T06:18:17;15.20;1.00
26053;DHT22;13826;51.186;4.450;2023-05-18T06:20:43;15.70;99.90
26053;DHT22;13826;51.186;4.450;2023-05-18T06:23:09;17.00;1.00
26053;DHT22;13826;51.186;4.450;2023-05-18T06:25:34;16.20;1.00
26053;DHT22;13826;51.186;4.450;2023-05-18T06:28:00;15.30;1.00
26053;DHT22;13826;51.186;4.450;2023-05-18T06:30:25;14.30;11.20
26053;DHT22;13826;51.186;4.450;2023-05-18T06:32:51;14.00;99.90
26053;DHT22;13826;51.186;4.450;2023-05-18T06:35:17;14.10;99.90
26053;DHT22;13826;51.186;4.450;2023-05-18T06:37:42;14.00;99.90
26053;DHT22;13826;51.186;4.450;2023-05-18T06:40:08;13.60;1.00
26053;DHT22;13826;51.186;4.450;2023-05-18T06:42:34;13.70;1.00
26053;DHT22;13826;51.186;4.450;2023-05-18T06:45:01;13.80;1.00
26053;DHT22;13826;51.186;4.450;2023-05-18T06:47:26;13.60;29.40
26053;DHT22;13826;51.186;4.450;2023-05-18T06:49:52;13.60;1.00
26053;DHT22;13826;51.186;4.450;2023-05-18T06:52:17;14.00;1.00
26053;DHT22;13826;51.186;4.450;2023-05-18T06:54:43;14.30;1.00
26053;DHT22;13826;51.186;4.450;2023-05-18T06:57:09;14.60;99.90
26053;DHT22;13826;51.186;4.450;2023-05-18T06:59:34;15.30;99.90
26053;DHT22;13826;51.186;4.450;2023-05-18T07:02:00;15.10;26.50
26053;DHT22;13826;51.186;4.450;2023-05-18T07:04:25;15.50;1.00
26053;DHT22;13826;51.186;4.450;2023-05-18T07:06:51;18.20;1.00
26053;DHT22;13826;51.186;4.450;2023-05-18T07:09:20;19.10;99.90
26053;DHT22;13826;51.186;4.450;2023-05-18T07:11:46;20.00;99.90
26053;DHT22;13826;51.186;4.450;2023-05-18T07:14:12;21.90;99.90
26053;DHT22;13826;51.186;4.450;2023-05-18T07:16:37;20.90;88.80
26053;DHT22;13826;51.186;4.450;2023-05-18T07:19:04;19.80;99.90
26053;DHT22;13826;51.186;4.450;2023-05-18T07:21:29;20.40;99.80
26053;DHT22;13826;51.186;4.450;2023-05-18T07:23:55;20.00;99.90
26053;DHT22;13826;51.186;4.450;2023-05-18T07:26:21;20.10;99.90
26053;DHT22;13826;51.186;4.450;2023-05-18T07:28:47;19.30;99.90
26053;DHT22;13826;51.186;4.450;2023-05-18T07:31:13;19.60;99.90
26053;DHT22;13826;51.186;4.450;2023-05-18T07:33:40;20.20;99.90
26053;DHT22;13826;51.186;4.450;2023-05-18T07:36:06;22.20;69.30
26053;DHT22;13826;51.186;4.450;2023-05-18T07:38:32;23.40;22.00
26053;DHT22;13826;51.186;4.450;2023-05-18T07:40:57;24.70;5.60
26053;DHT22;13826;51.186;4.450;2023-05-18T07:43:24;25.40;1.00
26053;DHT22;13826;51.186;4.450;2023-05-18T07:45:50;25.60;1.00
26053;DHT22;13826;51.186;4.450;2023-05-18T07:48:15;26.60;1.00
26053;DHT22;13826;51.186;4.450;2023-05-18T07:50:41;26.80;1.00
26053;DHT22;13826;51.186;4.450;2023-05-18T07:53:07;28.10;1.00
26053;DHT22;13826;51.186;4.450;2023-05-18T07:55:32;28.30;1.00
26053;DHT22;13826;51.186;4.450;2023-05-18T07:57:58;27.90;1.00
26053;DHT22;13826;51.186;4.450;2023-05-18T08:00:25;27.10;1.00
26053;DHT22;13826;51.186;4.450;2023-05-18T08:02:51;28.30;1.00
26053;DHT22;13826;51.186;4.450;2023-05-18T08:05:16;27.60;1.00
26053;DHT22;13826;51.186;4.450;2023-05-18T08:07:42;27.50;1.00
26053;DHT22;13826;51.186;4.450;2023-05-18T08:10:08;27.90;1.00
26053;DHT22;13826;51.186;4.450;2023-05-18T08:12:34;28.50;1.00
26053;DHT22;13826;51.186;4.450;2023-05-18T08:14:59;27.70;1.00
26053;DHT22;13826;51.186;4.450;2023-05-18T08:17:25;27.40;1.00
26053;DHT22;13826;51.186;4.450;2023-05-18T08:19:51;27.30;1.00
26053;DHT22;13826;51.186;4.450;2023-05-18T08:22:18;27.70;1.00
26053;DHT22;13826;51.186;4.450;2023-05-18T08:24:43;27.30;1.00
26053;DHT22;13826;51.186;4.450;2023-05-18T08:27:09;26.60;1.00
26053;DHT22;13826;51.186;4.450;2023-05-18T08:29:35;26.50;1.00
26053;DHT22;13826;51.186;4.450;2023-05-18T08:32:01;28.00;1.00
26053;DHT22;13826;51.186;4.450;2023-05-18T08:34:27;28.40;1.00
26053;DHT22;13826;51.186;4.450;2023-05-18T08:36:54;28.50;1.00
26053;DHT22;13826;51.186;4.450;2023-05-18T08:39:19;28.70;1.00
26053;DHT22;13826;51.186;4.450;2023-05-18T08:41:48;29.10;1.00
26053;DHT22;13826;51.186;4.450;2023-05-18T08:44:19;27.80;1.00
26053;DHT22;13826;51.186;4.450;2023-05-18T08:46:45;28.00;1.00
26053;DHT22;13826;51.186;4.450;2023-05-18T08:49:18;29.00;1.00
26053;DHT22;13826;51.186;4.450;2023-05-18T08:51:45;29.30;1.00
26053;DHT22;13826;51.186;4.450;2023-05-18T08:54:18;29.30;1.00
26053;DHT22;13826;51.186;4.450;2023-05-18T08:56:44;29.40;1.00
26053;DHT22;13826;51.186;4.450;2023-05-18T08:59:10;28.80;1.00
26053;DHT22;13826;51.186;4.450;2023-05-18T09:01:36;28.70;1.00
26053;DHT22;13826;51.186;4.450;2023-05-18T09:04:02;28.50;1.00
26053;DHT22;13826;51.186;4.450;2023-05-18T09:06:28;28.10;1.00
26053;DHT22;13826;51.186;4.450;2023-05-18T09:08:56;27.10;1.00
26053;DHT22;13826;51.186;4.450;2023-05-18T09:11:24;26.40;1.00
26053;DHT22;13826;51.186;4.450;2023-05-18T09:13:50;26.20;1.00
26053;DHT22;13826;51.186;4.450;2023-05-18T09:16:16;27.20;1.00
26053;DHT22;13826;51.186;4.450;2023-05-18T09:18:42;26.30;1.00
26053;DHT22;13826;51.186;4.450;2023-05-18T09:21:07;24.80;1.00
26053;DHT22;13826;51.186;4.450;2023-05-18T09:23:33;24.60;1.00
26053;DHT22;13826;51.186;4.450;2023-05-18T09:25:59;25.60;1.00
26053;DHT22;13826;51.186;4.450;2023-05-18T09:28:26;27.30;1.00
26053;DHT22;13826;51.186;4.450;2023-05-18T09:30:52;27.90;1.00
26053;DHT22;13826;51.186;4.450;2023-05-18T09:33:18;27.10;1.00
26053;DHT22;13826;51.186;4.450;2023-05-18T09:35:46;27.10;1.00
26053;DHT22;13826;51.186;4.450;2023-05-18T09:38:15;26.60;1.00
26053;DHT22;13826;51.186;4.450;2023-05-18T09:40:44;26.00;1.00
26053;DHT22;13826;51.186;4.450;2023-05-18T09:43:10;25.10;1.00
26053;DHT22;13826;51.186;4.450;2023-05-18T09:45:42;25.20;1.00
26053;DHT22;13826;51.186;4.450;2023-05-18T09:48:08;25.30;1.00
26053;DHT22;13826;51.186;4.450;2023-05-18T09:50:34;25.00;1.00
26053;DHT22;13826;51.186;4.450;2023-05-18T09:53:08;25.30;1.00
26053;DHT22;13826;51.186;4.450;2023-05-18T09:55:37;24.30;1.00
26053;DHT22;13826;51.186;4.450;2023-05-18T09:58:05;25.10;1.00
26053;DHT22;13826;51.186;4.450;2023-05-18T10:00:31;24.90;1.00
26053;DHT22;13826;51.186;4.450;2023-05-18T10:03:01;25.10;1.00
26053;DHT22;13826;51.186;4.450;2023-05-18T10:05:28;25.30;1.00
26053;DHT22;13826;51.186;4.450;2023-05-18T10:07:56;24.90;1.00
26053;DHT22;13826;51.186;4.450;2023-05-18T10:10:25;24.90;1.00
26053;DHT22;13826;51.186;4.450;2023-05-18T10:12:51;25.50;1.00
26053;DHT22;13826;51.186;4.450;2023-05-18T10:15:20;25.50;1.00
26053;DHT22;13826;51.186;4.450;2023-05-18T10:17:46;26.80;1.00
26053;DHT22;13826;51.186;4.450;2023-05-18T10:20:20;27.50;1.00
26053;DHT22;13826;51.186;4.450;2023-05-18T10:22:47;28.10;1.00
26053;DHT22;13826;51.186;4.450;2023-05-18T10:25:20;27.20;1.00
26053;DHT22;13826;51.186;4.450;2023-05-18T10:27:50;26.60;1.00
26053;DHT22;13826;51.186;4.450;2023-05-18T10:30:15;25.70;1.00
26053;DHT22;13826;51.186;4.450;2023-05-18T10:32:42;25.90;1.00
26053;DHT22;13826;51.186;4.450;2023-05-18T10:35:08;25.90;1.00
26053;DHT22;13826;51.186;4.450;2023-05-18T10:37:34;24.90;1.00
26053;DHT22;13826;51.186;4.450;2023-05-18T10:40:02;24.60;1.00
26053;DHT22;13826;51.186;4.450;2023-05-18T10:42:29;24.40;1.00
26053;DHT22;13826;51.186;4.450;2023-05-18T10:44:55;24.00;1.00
26053;DHT22;13826;51.186;4.450;2023-05-18T10:47:21;23.40;1.00
26053;DHT22;13826;51.186;4.450;2023-05-18T10:49:48;23.30;1.00
26053;DHT22;13826;51.186;4.450;2023-05-18T10:52:15;23.10;1.00
26053;DHT22;13826;51.186;4.450;2023-05-18T10:54:41;23.20;1.00
26053;DHT22;13826;51.186;4.450;2023-05-18T10:57:06;23.10;1.00
26053;DHT22;13826;51.186;4.450;2023-05-18T10:59:35;23.20;1.00
26053;DHT22;13826;51.186;4.450;2023-05-18T11:02:04;24.30;1.00
26053;DHT22;13826;51.186;4.450;2023-05-18T11:04:29;24.80;1.00
26053;DHT22;13826;51.186;4.450;2023-05-18T11:06:56;25.00;1.00
26053;DHT22;13826;51.186;4.450;2023-05-18T11:09:22;25.60;1.00
26053;DHT22;13826;51.186;4.450;2023-05-18T11:11:49;25.20;1.00
26053;DHT22;13826;51.186;4.450;2023-05-18T11:14:15;26.20;1.00
26053;DHT22;13826;51.186;4.450;2023-05-18T11:16:48;26.10;1.00
26053;DHT22;13826;51.186;4.450;2023-05-18T11:19:14;25.20;1.00
26053;DHT22;13826;51.186;4.450;2023-05-18T11:29:19;25.00;1.00
26053;DHT22;13826;51.186;4.450;2023-05-18T11:31:45;24.80;1.00
26053;DHT22;13826;51.186;4.450;2023-05-18T11:34:53;24.70;1.00
26053;DHT22;13826;51.186;4.450;2023-05-18T11:37:01;25.20;1.00
26053;DHT22;13826;51.186;4.450;2023-05-18T11:39:26;25.90;1.00
26053;DHT22;13826;51.186;4.450;2023-05-18T11:41:59;26.30;1.00
26053;DHT22;13826;51.186;4.450;2023-05-18T11:44:26;26.20;1.00
26053;DHT22;13826;51.186;4.450;2023-05-18T11:47:02;26.10;1.00
26053;DHT22;13826;51.186;4.450;2023-05-18T11:49:29;25.20;1.00
26053;DHT22;13826;51.186;4.450;2023-05-18T11:51:56;24.70;1.00
26053;DHT22;13826;51.186;4.450;2023-05-18T11:54:22;24.50;1.00
26053;DHT22;13826;51.186;4.450;2023-05-18T11:56:49;24.10;1.00
26053;DHT22;13826;51.186;4.450;2023-05-18T11:59:15;23.30;1.00
26053;DHT22;13826;51.186;4.450;2023-05-18T12:01:41;22.20;1.00
26053;DHT22;13826;51.186;4.450;2023-05-18T12:04:07;21.50;1.00
26053;DHT22;13826;51.186;4.450;2023-05-18T12:06:34;21.00;1.00
26053;DHT22;13826;51.186;4.450;2023-05-18T12:09:00;21.10;1.00
26053;DHT22;13826;51.186;4.450;2023-05-18T12:11:26;21.10;1.00
26053;DHT22;13826;51.186;4.450;2023-05-18T12:13:52;20.90;1.00
26053;DHT22;13826;51.186;4.450;2023-05-18T12:16:20;21.10;1.00
26053;DHT22;13826;51.186;4.450;2023-05-18T12:18:49;21.40;1.00
26053;DHT22;13826;51.186;4.450;2023-05-18T12:21:19;21.60;1.00
26053;DHT22;13826;51.186;4.450;2023-05-18T12:23:45;21.10;1.00
26053;DHT22;13826;51.186;4.450;2023-05-18T12:26:10;21.10;1.00
26053;DHT22;13826;51.186;4.450;2023-05-18T12:28:36;21.30;1.00
26053;DHT22;13826;51.186;4.450;2023-05-18T12:31:02;21.40;1.00
26053;DHT22;13826;51.186;4.450;2023-05-18T12:33:34;21.50;1.00
26053;DHT22;13826;51.186;4.450;2023-05-18T12:36:00;21.20;1.00
26053;DHT22;13826;51.186;4.450;2023-05-18T12:38:25;20.80;1.00
26053;DHT22;13826;51.186;4.450;2023-05-18T12:40:54;20.80;1.00
26053;DHT22;13826;51.186;4.450;2023-05-18T12:43:22;21.20;1.00
26053;DHT22;13826;51.186;4.450;2023-05-18T12:45:48;20.70;1.00
26053;DHT22;13826;51.186;4.450;2023-05-18T12:48:14;20.60;1.00
26053;DHT22;13826;51.186;4.450;2023-05-18T12:50:46;20.50;1.00
26053;DHT22;13826;51.186;4.450;2023-05-18T12:53:12;20.30;1.00
26053;DHT22;13826;51.186;4.450;2023-05-18T12:55:38;20.30;1.00
26053;DHT22;13826;51.186;4.450;2023-05-18T12:58:05;20.30;1.00
26053;DHT22;13826;51.186;4.450;2023-05-18T13:00:34;21.10;1.00
26053;DHT22;13826;51.186;4.450;2023-05-18T13:03:04;21.50;1.00
26053;DHT22;13826;51.186;4.450;2023-05-18T13:05:29;21.20;1.00
26053;DHT22;13826;51.186;4.450;2023-05-18T13:07:55;21.10;1.00
26053;DHT22;13826;51.186;4.450;2023-05-18T13:10:20;21.20;1.00
26053;DHT22;13826;51.186;4.450;2023-05-18T13:12:47;21.20;1.00
26053;DHT22;13826;51.186;4.450;2023-05-18T13:15:14;20.60;1.00
26053;DHT22;13826;51.186;4.450;2023-05-18T13:20:36;20.50;1.00
26053;DHT22;13826;51.186;4.450;2023-05-18T13:23:04;20.30;1.00
26053;DHT22;13826;51.186;4.450;2023-05-18T13:25:30;19.80;1.00
26053;DHT22;13826;51.186;4.450;2023-05-18T13:27:56;19.70;1.00
26053;DHT22;13826;51.186;4.450;2023-05-18T13:30:22;19.90;1.00
26053;DHT22;13826;51.186;4.450;2023-05-18T13:32:48;20.00;1.00
26053;DHT22;13826;51.186;4.450;2023-05-18T13:35:13;20.20;1.00
26053;DHT22;13826;51.186;4.450;2023-05-18T13:37:39;19.90;1.00
26053;DHT22;13826;51.186;4.450;2023-05-18T13:40:06;20.30;1.00
26053;DHT22;13826;51.186;4.450;2023-05-18T13:42:31;20.00;1.00
26053;DHT22;13826;51.186;4.450;2023-05-18T13:44:57;19.40;1.00
26053;DHT22;13826;51.186;4.450;2023-05-18T13:47:22;19.30;1.00
26053;DHT22;13826;51.186;4.450;2023-05-18T13:49:48;19.10;1.00
26053;DHT22;13826;51.186;4.450;2023-05-18T13:52:14;19.10;1.00
26053;DHT22;13826;51.186;4.450;2023-05-18T13:54:39;19.40;1.00
26053;DHT22;13826;51.186;4.450;2023-05-18T13:57:05;19.70;1.00
26053;DHT22;13826;51.186;4.450;2023-05-18T13:59:32;19.80;1.00
26053;DHT22;13826;51.186;4.450;2023-05-18T14:07:50;20.30;1.00
26053;DHT22;13826;51.186;4.450;2023-05-18T14:10:19;19.90;1.00
26053;DHT22;13826;51.186;4.450;2023-05-18T14:12:45;19.70;1.00
26053;DHT22;13826;51.186;4.450;2023-05-18T14:15:11;20.10;1.00
26053;DHT22;13826;51.186;4.450;2023-05-18T14:17:38;20.40;1.00
26053;DHT22;13826;51.186;4.450;2023-05-18T14:20:03;20.40;1.00
26053;DHT22;13826;51.186;4.450;2023-05-18T14:22:29;20.50;1.00
26053;DHT22;13826;51.186;4.450;2023-05-18T14:24:55;20.60;1.00
26053;DHT22;13826;51.186;4.450;2023-05-18T14:27:21;20.40;1.00
26053;DHT22;13826;51.186;4.450;2023-05-18T14:29:47;20.20;1.00
26053;DHT22;13826;51.186;4.450;2023-05-18T14:32:12;20.20;1.00
26053;DHT22;13826;51.186;4.450;2023-05-18T14:34:38;20.30;1.00
26053;DHT22;13826;51.186;4.450;2023-05-18T14:37:04;20.10;1.00
26053;DHT22;13826;51.186;4.450;2023-05-18T14:39:29;19.70;1.00
26053;DHT22;13826;51.186;4.450;2023-05-18T14:41:55;19.70;1.00
26053;DHT22;13826;51.186;4.450;2023-05-18T14:44:20;19.70;1.00
26053;DHT22;13826;51.186;4.450;2023-05-18T14:46:46;19.80;1.00
26053;DHT22;13826;51.186;4.450;2023-05-18T14:49:11;19.60;1.00
26053;DHT22;13826;51.186;4.450;2023-05-18T14:51:37;19.70;1.00
26053;DHT22;13826;51.186;4.450;2023-05-18T14:54:03;19.80;1.00
26053;DHT22;13826;51.186;4.450;2023-05-18T14:56:28;19.80;1.00
26053;DHT22;13826;51.186;4.450;2023-05-18T14:58:54;19.80;1.00
26053;DHT22;13826;51.186;4.450;2023-05-18T15:01:19;20.00;1.00
26053;DHT22;13826;51.186;4.450;2023-05-18T15:03:45;19.70;1.00
26053;DHT22;13826;51.186;4.450;2023-05-18T15:06:11;19.30;1.00
26053;DHT22;13826;51.186;4.450;2023-05-18T15:08:36;19.20;1.00
26053;DHT22;13826;51.186;4.450;2023-05-18T15:11:02;19.10;1.00
26053;DHT22;13826;51.186;4.450;2023-05-18T15:13:27;19.20;1.00
26053;DHT22;13826;51.186;4.450;2023-05-18T15:15:53;19.40;1.00
26053;DHT22;13826;51.186;4.450;2023-05-18T15:18:18;19.50;1.00
26053;DHT22;13826;51.186;4.450;2023-05-18T15:20:44;19.60;1.00
26053;DHT22;13826;51.186;4.450;2023-05-18T15:23:11;19.80;1.00
26053;DHT22;13826;51.186;4.450;2023-05-18T15:25:36;19.60;1.00
26053;DHT22;13826;51.186;4.450;2023-05-18T15:28:02;19.40;1.00
26053;DHT22;13826;51.186;4.450;2023-05-18T15:30:28;19.40;1.00
26053;DHT22;13826;51.186;4.450;2023-05-18T15:32:54;19.20;1.00
26053;DHT22;13826;51.186;4.450;2023-05-18T15:35:20;19.20;1.00
26053;DHT22;13826;51.186;4.450;2023-05-18T15:37:46;19.20;1.00
26053;DHT22;13826;51.186;4.450;2023-05-18T15:40:12;19.10;1.00
26053;DHT22;13826;51.186;4.450;2023-05-18T15:42:37;19.20;1.00
26053;DHT22;13826;51.186;4.450;2023-05-18T15:45:03;19.20;1.00
26053;DHT22;13826;51.186;4.450;2023-05-18T15:47:29;19.20;1.00
26053;DHT22;13826;51.186;4.450;2023-05-18T15:49:55;19.10;1.00
26053;DHT22;13826;51.186;4.450;2023-05-18T15:52:20;19.20;1.00
26053;DHT22;13826;51.186;4.450;2023-05-18T15:54:46;19.10;1.00
26053;DHT22;13826;51.186;4.450;2023-05-18T15:57:11;19.20;1.00
26053;DHT22;13826;51.186;4.450;2023-05-18T15:59:37;18.90;1.00
26053;DHT22;13826;51.186;4.450;2023-05-18T16:02:02;18.90;1.00
26053;DHT22;13826;51.186;4.450;2023-05-18T16:04:28;18.60;1.00
26053;DHT22;13826;51.186;4.450;2023-05-18T16:06:54;18.60;1.00
26053;DHT22;13826;51.186;4.450;2023-05-18T16:09:19;18.40;1.00
26053;DHT22;13826;51.186;4.450;2023-05-18T16:11:45;18.30;1.00